createdAt,value
2022-09-18T00:00:35.716Z,97003.13
2022-09-18T00:05:38.239Z,97011.91
2022-09-18T00:10:46.584Z,97008.88
2022-09-18T00:15:57.874Z,97016.78
2022-09-18T00:21:11.835Z,97020.59
2022-09-18T00:26:16.216Z,97028.78
2022-09-18T00:31:21.427Z,97032.56
2022-09-18T00:36:23.678Z,97036.41
2022-09-18T00:41:28.891Z,97029.22
2022-09-18T00:46:34.928Z,97026.72
2022-09-18T00:51:39.300Z,97028.91
2022-09-18T00:56:41.675Z,97034.28
2022-09-18T01:01:43.493Z,97038.09
2022-09-18T01:07:06.736Z,97033.44
2022-09-18T01:12:19.397Z,97045.50
2022-09-18T01:17:44.624Z,97035.16
2022-09-18T01:23:31.499Z,97048.88
2022-09-18T01:28:42.250Z,97053.28
2022-09-18T01:34:04.999Z,97057.13
2022-09-18T01:39:17.245Z,97046.22
2022-09-18T01:44:24.469Z,97030.63
2022-09-18T01:49:29.480Z,97036.94
2022-09-18T01:54:35.448Z,97017.84
2022-09-18T01:59:46.183Z,97017.31
2022-09-18T02:04:52.594Z,97016.53
2022-09-18T02:09:56.374Z,97020.63
2022-09-18T02:15:02.967Z,97006.97
2022-09-18T02:20:25.378Z,97000.41
2022-09-18T02:25:33.625Z,97001.00
2022-09-18T02:30:38.792Z,97003.72
2022-09-18T02:35:47.459Z,97007.59
2022-09-18T02:41:07.410Z,97005.38
2022-09-18T02:46:19.248Z,97009.75
2022-09-18T02:51:45.754Z,97003.19
2022-09-18T02:56:56.156Z,97003.72
2022-09-18T03:01:59.561Z,96996.03
2022-09-18T03:07:03.681Z,96999.31
2022-09-18T03:12:09.399Z,97008.03
2022-09-18T03:17:14.629Z,97024.69
2022-09-18T03:22:19.148Z,97005.56
2022-09-18T03:27:21.198Z,97011.31
2022-09-18T03:32:23.963Z,97008.84
2022-09-18T03:37:27.063Z,97003.91
2022-09-18T03:42:29.684Z,97008.59
2022-09-18T03:47:36.684Z,97009.66
2022-09-18T03:52:39.601Z,97018.94
2022-09-18T03:57:57.321Z,97009.38
2022-09-18T04:03:19.315Z,97006.38
2022-09-18T04:08:39.882Z,97007.75
2022-09-18T04:13:49.531Z,97010.22
2022-09-18T04:18:52.506Z,97013.47
2022-09-18T04:23:56.349Z,97002.56
2022-09-18T04:28:58.203Z,97011.31
2022-09-18T04:34:00.267Z,97025.78
2022-09-18T04:39:02.109Z,97020.84
2022-09-18T04:44:04.481Z,97028.25
2022-09-18T04:49:06.445Z,97026.06
2022-09-18T04:54:09.677Z,97035.34
2022-09-18T04:59:12.723Z,97029.88
2022-09-18T05:04:18.947Z,97032.09
2022-09-18T05:09:40.413Z,97031.25
2022-09-18T05:14:44.051Z,97033.97
2022-09-18T05:19:49.482Z,97037.50
2022-09-18T05:24:58.359Z,97041.91
2022-09-18T05:30:00.030Z,97041.38
2022-09-18T05:35:17.696Z,97050.16
2022-09-18T05:40:27.425Z,97065.19
2022-09-18T05:45:29.628Z,97068.50
2022-09-18T05:50:34.311Z,97068.25
2022-09-18T05:55:39.884Z,97065.25
2022-09-18T06:00:44.627Z,97052.16
2022-09-18T06:05:54.465Z,97058.47
2022-09-18T06:11:01.515Z,97061.75
2022-09-18T06:16:05.746Z,97073.25
2022-09-18T06:21:24.010Z,97084.84
2022-09-18T06:26:25.783Z,97074.09
2022-09-18T06:31:27.588Z,97080.66
2022-09-18T06:36:44.319Z,97073.91
2022-09-18T06:42:12.217Z,97076.34
2022-09-18T06:47:33.042Z,97082.13
2022-09-18T06:52:36.214Z,97079.09
2022-09-18T06:57:40.611Z,97079.69
2022-09-18T07:02:46.831Z,97085.69
2022-09-18T07:08:07.333Z,97088.72
2022-09-18T07:13:11.762Z,97097.22
2022-09-18T07:18:21.272Z,97095.84
2022-09-18T07:23:24.248Z,97081.63
2022-09-18T07:28:29.402Z,97094.50
2022-09-18T07:33:40.494Z,97088.75
2022-09-18T07:38:43.697Z,97084.94
2022-09-18T07:43:51.143Z,97089.31
2022-09-18T07:48:53.315Z,97093.69
2022-09-18T07:59:39.830Z,97093.19
2022-09-18T08:04:41.610Z,97095.38
2022-09-18T08:09:52.602Z,97099.47
2022-09-18T08:15:08.830Z,97098.69
2022-09-18T08:20:24.070Z,97105.53
2022-09-18T08:25:28.768Z,97093.22
2022-09-18T08:30:31.754Z,97104.16
2022-09-18T08:35:37.367Z,97103.31
2022-09-18T08:41:16.385Z,97101.69
2022-09-18T08:46:29.758Z,97115.09
2022-09-18T08:52:04.256Z,97104.69
2022-09-18T08:57:16.459Z,97115.09
2022-09-18T09:02:42.353Z,97110.97
2022-09-18T09:07:51.842Z,97115.91
2022-09-18T09:13:31.236Z,97115.13
2022-09-18T09:18:57.296Z,97123.34
2022-09-18T09:24:17.258Z,97112.94
2022-09-18T09:29:44.143Z,97114.63
2022-09-18T09:35:42.757Z,97117.91
2022-09-18T09:40:52.637Z,97114.06
2022-09-18T09:46:00.075Z,97112.44
2022-09-18T09:51:38.494Z,97122.84
2022-09-18T09:56:51.211Z,97120.13
2022-09-18T10:02:09.904Z,97120.66
2022-09-18T10:07:17.508Z,97122.28
2022-09-18T10:12:36.466Z,97117.66
2022-09-18T10:17:41.386Z,97125.59
2022-09-18T10:22:46.734Z,97125.03
2022-09-18T10:27:50.016Z,97120.63
2022-09-18T10:32:52.978Z,97116.16
2022-09-18T10:38:01.656Z,97121.09
2022-09-18T10:43:07.769Z,97111.50
2022-09-18T10:48:25.086Z,97109.03
2022-09-18T10:53:32.736Z,97121.63
2022-09-18T10:58:43.216Z,97102.69
2022-09-18T11:03:47.676Z,97101.31
2022-09-18T11:09:01.254Z,97099.34
2022-09-18T11:14:08.374Z,97098.44
2022-09-18T11:19:38.982Z,97083.16
2022-09-18T11:24:48.990Z,97084.84
2022-09-18T11:29:51.834Z,97088.44
2022-09-18T11:34:57.766Z,97087.88
2022-09-18T11:40:25.280Z,97092.84
2022-09-18T11:45:52.990Z,97090.34
2022-09-18T11:51:02.179Z,97070.63
2022-09-18T11:56:16.008Z,97072.75
2022-09-18T12:01:41.978Z,97080.91
2022-09-18T12:06:53.653Z,97073.78
2022-09-18T12:12:18.559Z,97064.91
2022-09-18T12:17:29.266Z,97058.00
2022-09-18T12:22:44.673Z,97069.84
2022-09-18T12:27:58.625Z,97069.84
2022-09-18T12:33:23.320Z,97061.34
2022-09-18T12:38:27.897Z,97062.16
2022-09-18T12:43:47.181Z,97050.22
2022-09-18T12:48:58.130Z,97054.75
2022-09-18T12:54:21.699Z,97051.38
2022-09-18T12:59:39.690Z,97052.44
2022-09-18T13:04:49.913Z,97050.78
2022-09-18T13:10:12.248Z,97048.34
2022-09-18T13:15:19.939Z,97053.94
2022-09-18T13:20:33.100Z,97038.03
2022-09-18T13:25:38.727Z,97033.84
2022-09-18T13:30:41.234Z,97014.78
2022-09-18T13:35:54.678Z,97007.25
2022-09-18T13:41:08.912Z,97005.50
2022-09-18T13:46:31.723Z,96995.38
2022-09-18T13:51:36.181Z,96998.34
2022-09-18T13:57:15.066Z,96999.72
2022-09-18T14:02:35.473Z,96984.00
2022-09-18T14:07:37.060Z,96991.09
2022-09-18T14:12:38.802Z,96981.41
2022-09-18T14:17:41.234Z,96970.88
2022-09-18T14:22:42.950Z,96976.59
2022-09-18T14:27:59.623Z,96968.34
2022-09-18T14:33:04.230Z,96957.44
2022-09-18T14:38:36.796Z,96954.13
2022-09-18T14:43:40.162Z,96956.25
2022-09-18T14:48:41.954Z,96942.22
2022-09-18T14:53:46.742Z,96939.16
2022-09-18T14:58:50.599Z,96942.72
2022-09-18T15:03:54.508Z,96943.53
2022-09-18T15:08:57.796Z,96929.91
2022-09-18T15:14:00.022Z,96934.94
2022-09-18T15:19:02.032Z,96930.56
2022-09-18T15:24:05.063Z,96932.25
2022-09-18T15:29:18.504Z,96928.16
2022-09-18T15:34:20.087Z,96924.66
2022-09-18T15:39:42.483Z,96931.31
2022-09-18T15:44:50.225Z,96945.09
2022-09-18T15:49:52.856Z,96938.56
2022-09-18T15:55:09.916Z,96925.69
2022-09-18T16:00:21.191Z,96927.03
2022-09-18T16:05:23.054Z,96921.81
2022-09-18T16:10:33.413Z,96922.09
2022-09-18T16:15:35.616Z,96904.56
2022-09-18T16:21:01.588Z,96907.91
2022-09-18T16:26:20.248Z,96898.06
2022-09-18T16:31:25.266Z,96898.94
2022-09-18T16:36:32.819Z,96892.66
2022-09-18T16:41:35.383Z,96897.03
2022-09-18T16:47:02.101Z,96894.88
2022-09-18T16:52:04.658Z,96895.69
2022-09-18T16:57:12.953Z,96889.09
2022-09-18T17:02:18.074Z,96896.28
2022-09-18T17:07:19.744Z,96902.63
2022-09-18T17:12:21.538Z,96898.81
2022-09-18T17:17:23.654Z,96896.69
2022-09-18T17:22:25.356Z,96908.75
2022-09-18T17:27:27.356Z,96895.31
2022-09-18T17:32:29.702Z,96903.25
2022-09-18T17:37:31.453Z,96906.06
2022-09-18T17:42:33.493Z,96904.38
2022-09-18T17:47:35.240Z,96905.50
2022-09-18T17:52:36.932Z,96904.41
2022-09-18T17:57:39.331Z,96901.94
2022-09-18T18:02:41.060Z,96901.94
2022-09-18T18:07:42.800Z,96903.34
2022-09-18T18:12:45.372Z,96907.72
2022-09-18T18:17:48.601Z,96896.22
2022-09-18T18:22:50.281Z,96895.41
2022-09-18T18:27:54.013Z,96910.25
2022-09-18T18:32:56.207Z,96912.78
2022-09-18T18:37:58.928Z,96916.16
2022-09-18T18:43:00.698Z,96913.44
2022-09-18T18:48:02.942Z,96907.41
2022-09-18T18:53:04.670Z,96903.59
2022-09-18T18:58:06.336Z,96905.59
2022-09-18T19:03:08.193Z,96892.19
2022-09-18T19:08:10.003Z,96895.56
2022-09-18T19:13:12.350Z,96899.97
2022-09-18T19:18:14.066Z,96891.25
2022-09-18T19:23:16.790Z,96900.59
2022-09-18T19:28:19.069Z,96890.50
2022-09-18T19:33:22.937Z,96896.00
2022-09-18T19:38:25.073Z,96894.09
2022-09-18T19:43:30.988Z,96887.81
2022-09-18T19:48:33.621Z,96883.66
2022-09-18T19:53:35.482Z,96866.94
2022-09-18T19:58:38.978Z,96869.97
2022-09-18T20:03:42.202Z,96866.09
2022-09-18T20:08:43.768Z,96865.03
2022-09-18T20:13:50.409Z,96849.22
2022-09-18T20:18:52.398Z,96850.84
2022-09-18T20:23:58.296Z,96846.78
2022-09-18T20:29:00.629Z,96832.25
2022-09-18T20:34:02.685Z,96840.47
2022-09-18T20:39:04.703Z,96842.13
2022-09-18T20:44:06.429Z,96834.75
2022-09-18T20:49:08.198Z,96832.31
2022-09-18T20:54:13.966Z,96835.38
2022-09-18T20:59:18.125Z,96831.88
2022-09-18T21:04:20.612Z,96838.41
2022-09-18T21:09:24.703Z,96852.16
2022-09-18T21:14:27.247Z,96821.00
2022-09-18T21:19:29.424Z,96839.66
2022-09-18T21:24:32.260Z,96836.91
2022-09-18T21:29:33.914Z,96824.34
2022-09-18T21:34:35.800Z,96833.66
2022-09-18T21:39:37.893Z,96834.22
2022-09-18T21:44:39.609Z,96827.63
2022-09-18T21:49:41.524Z,96828.75
2022-09-18T21:54:43.155Z,96826.56
2022-09-18T21:59:44.797Z,96830.41
2022-09-18T22:04:46.493Z,96832.59
2022-09-18T22:09:50.416Z,96839.16
2022-09-18T22:14:52.048Z,96837.53
2022-09-18T22:19:53.671Z,96845.78
2022-09-18T22:24:57.728Z,96837.31
2022-09-18T22:29:59.705Z,96847.44
2022-09-18T22:35:01.324Z,96845.50
2022-09-18T22:40:03.302Z,96848.53
2022-09-18T22:45:05.613Z,96856.75
2022-09-18T22:50:07.774Z,96843.34
2022-09-18T22:55:09.427Z,96830.72
2022-09-18T23:00:16.321Z,96841.97
2022-09-18T23:05:18.219Z,96833.50
2022-09-18T23:10:20.895Z,96839.50
2022-09-18T23:15:22.527Z,96844.72
2022-09-18T23:20:24.181Z,96840.88
2022-09-18T23:25:25.772Z,96841.16
2022-09-18T23:30:28.057Z,96850.19
2022-09-18T23:35:29.726Z,96853.19
2022-09-18T23:40:31.823Z,96850.44
2022-09-18T23:45:34.682Z,96901.56
2022-09-18T23:50:36.325Z,96912.41
2022-09-18T23:55:37.987Z,96920.72
